Latest Weather Observations for Toowoomba

IDQ60801

Issued at 9:32 am EST Sunday 19 April 2015 (issued every 30 minutes, with the page automatically refreshed every 10 minutes)

About weather observations | Map of weather stations | Latest weather observations for QLD | Other Formats
Station Details ID: 041529 Name: TOOWOOMBA AIRPORT Lat: -27.54 Lon: 151.91 Height: 640.9 m
Data from the previous 72 hours. | See also: Recent months at Toowoomba
Date/Time
EST
Temp
°C
App
Temp
°C
Dew
Point
Rel
Hum
%
Delta-T
°C
Wind Press
QNH
hPa
Press
MSL
hPa
Rain
since 9 am
mm
Dir
 
Spd
km/h
Gust
km/h
Spd
kts
Gust
kts
19/09:00am 20.0 19.9 17.0 83 1.9 N 13 19 7 10 1022.8 1020.5 0.4
19/08:30am 18.7 18.0 16.3 86 1.5 N 15 22 8 12 1022.9 1020.6 0.4
19/08:00am 18.3 18.4 16.6 90 1.0 N 11 15 6 8 1022.8 1020.5 0.4
19/07:30am 17.4 18.5 16.6 95 0.5 NE 6 9 3 5 1022.7 1020.4 0.4
19/07:00am 16.7 17.0 16.1 96 0.4 NE 9 15 5 8 1022.3 1019.9 0.4
19/06:30am 16.6 16.2 16.1 97 0.3 NE 13 17 7 9 1021.7 1019.4 0.4
19/06:00am 16.7 15.9 16.1 96 0.4 NE 15 20 8 11 1021.4 1019.1 0.4
19/05:30am 16.6 15.4 16.1 97 0.3 NE 17 20 9 11 1021.4 1019.1 0.4
19/05:00am 16.7 15.9 16.2 97 0.3 NE 15 17 8 9 1021.2 1018.8 0.4
19/04:30am 16.9 15.7 16.1 95 0.5 NE 17 20 9 11 1020.8 1018.4 0.4
19/04:00am 17.1 16.0 16.3 95 0.5 NE 17 24 9 13 1020.9 1018.5 0.4
19/03:30am 17.2 16.1 16.4 95 0.5 NE 17 22 9 12 1021.2 1018.8 0.4
19/03:00am 17.1 16.0 16.3 95 0.5 NE 17 22 9 12 1021.3 1019.0 0.4
19/02:34am 17.1 15.6 16.3 95 0.5 NE 19 24 10 13 1021.4 1019.1 0.4
19/02:30am 17.1 15.6 16.3 95 0.5 NE 19 24 10 13 1021.5 1019.2 0.4
19/02:10am 17.0 15.8 16.0 94 0.6 ENE 17 20 9 11 1021.5 1019.2 0.4
19/02:00am 17.0 15.8 16.2 95 0.5 ENE 17 22 9 12 1021.7 1019.4 0.4
19/01:30am 17.1 16.3 16.1 94 0.6 NE 15 22 8 12 1022.3 1019.9 0.4
19/01:00am 17.1 16.0 16.3 95 0.5 ENE 17 24 9 13 1022.6 1020.2 0.4
19/12:57am 17.1 16.0 16.3 95 0.5 ENE 17 22 9 12 1022.7 1020.4 0.4
19/12:30am 17.0 15.8 16.2 95 0.5 ENE 17 24 9 13 1022.9 1020.6 0.4
19/12:00am 17.2 15.7 16.4 95 0.5 ENE 19 24 10 13 1022.9 1020.6 0.4
 
Date/Time
EST
Temp
°C
App
Temp
°C
Dew
Point
Rel
Hum
%
Delta-T
°C
Wind Press
QNH
hPa
Press
MSL
hPa
Rain
since 9 am
mm
Dir
 
Spd
km/h
Gust
km/h
Spd
kts
Gust
kts
18/11:41pm 17.0 15.8 16.2 95 0.5 ENE 17 20 9 11 1023.1 1020.8 0.4
18/11:30pm 17.2 16.1 16.4 95 0.5 ENE 17 22 9 12 1023.2 1020.9 0.4
18/11:00pm 17.5 16.5 16.5 94 0.6 ENE 17 22 9 12 1023.2 1020.9 0.4
18/10:30pm 17.5 15.9 16.5 94 0.6 ENE 20 24 11 13 1023.4 1021.1 0.4
18/10:27pm 17.5 16.0 16.7 95 0.5 ENE 20 24 11 13 1023.4 1021.1 0.4
18/10:00pm 17.5 16.0 16.7 95 0.5 ENE 20 22 11 12 1023.4 1021.1 0.4
18/09:31pm 17.7 16.2 16.7 94 0.6 ENE 20 28 11 15 1023.7 1021.3 0.4
18/09:30pm 17.7 16.2 16.7 94 0.6 ENE 20 28 11 15 1023.7 1021.3 0.4
18/09:00pm 17.7 16.2 16.4 92 0.8 ENE 19 24 10 13 1023.6 1021.2 0.4
18/08:52pm 17.8 16.4 16.5 92 0.8 ENE 19 22 10 12 1023.6 1021.2 0.4
18/08:30pm 17.7 16.1 16.0 90 1.0 E 19 28 10 15 1023.3 1021.0 0.4
18/08:00pm 17.6 16.3 15.8 89 1.1 ENE 17 20 9 11 1023.4 1021.1 0.4
18/07:30pm 17.8 16.1 15.8 88 1.2 ENE 19 22 10 12 1023.2 1020.9 0.4
18/07:00pm 18.1 17.7 16.3 89 1.1 E 13 17 7 9 1023.0 1020.7 0.4
18/06:42pm 17.9 17.7 16.6 92 0.8 E 13 17 7 9 1022.9 1020.6 0.4
18/06:30pm 17.8 17.7 16.1 90 1.0 E 11 15 6 8 1022.7 1020.4 0.2
18/06:00pm 17.9 16.3 15.9 88 1.2 NE 19 28 10 15 1022.7 1020.4 0.0
18/05:56pm 18.0 16.3 16.2 89 1.1 NE 20 28 11 15 1022.6 1020.2 0.0
18/05:30pm 18.1 16.4 16.3 89 1.1 NNE 20 28 11 15 1022.5 1020.1 0.0
18/05:00pm 19.2 17.3 15.7 80 2.1 NNE 20 26 11 14 1022.4 1020.0 0.0
18/04:47pm 19.4 17.6 16.1 81 2.0 NNE 20 30 11 16 1022.6 1020.2 0.0
18/04:34pm 19.6 17.8 15.9 79 2.3 NNE 20 28 11 15 1022.5 1020.1 0.0
18/04:30pm 19.9 18.2 16.2 79 2.3 NNE 20 32 11 17 1022.4 1020.0 0.0
18/04:00pm 21.8 20.4 15.6 68 3.8 ENE 17 22 9 12 1022.0 1019.6 0.0
18/03:30pm 22.2 20.3 15.1 64 4.3 ENE 19 24 10 13 1022.1 1019.7 0.0
18/03:00pm 23.3 21.9 15.6 62 4.7 ENE 17 26 9 14 1022.1 1019.7 0.0
18/02:30pm 23.5 21.7 15.5 60 4.9 ENE 19 26 10 14 1022.0 1019.6 0.0
18/02:00pm 23.9 21.6 15.7 60 5.1 E 22 32 12 17 1021.9 1019.5 0.0
18/01:30pm 23.8 21.9 15.3 59 5.2 ENE 19 24 10 13 1022.4 1020.0 0.0
18/01:00pm 22.3 20.7 14.9 63 4.5 ENE 17 24 9 13 1023.0 1020.7 0.0
18/12:30pm 22.5 20.7 15.6 65 4.3 ENE 19 28 10 15 1023.4 1021.1 0.0
18/12:00pm 22.7 20.9 15.5 64 4.4 ENE 19 24 10 13 1023.9 1021.5 0.0
18/11:30am 21.5 20.1 15.6 69 3.6 ENE 17 30 9 16 1024.6 1022.3 0.0
18/11:00am 21.1 18.6 15.2 69 3.6 ENE 22 28 12 15 1025.1 1022.8 0.0
18/10:30am 21.8 20.2 16.1 70 3.5 ENE 19 26 10 14 1025.6 1023.3 0.0
18/10:00am 20.6 19.0 16.0 75 2.8 ENE 19 26 10 14 1025.7 1023.4 0.0
18/09:43am 19.7 18.0 15.8 78 2.4 ENE 19 28 10 15 1025.9 1023.6 0.0
18/09:32am 19.9 18.3 16.0 78 2.4 ENE 19 24 10 13 1025.9 1023.6 0.0
18/09:30am 19.8 18.3 16.4 81 2.1 ENE 19 24 10 13 1025.9 1023.6 0.0
18/09:26am 19.5 17.8 16.3 82 2.0 ENE 20 26 11 14 1026.0 1023.7 0.0
18/09:08am 18.8 17.5 15.9 83 1.8 ENE 17 28 9 15 1026.1 1023.8 0.0
18/09:04am 19.1 17.9 16.0 82 1.9 ENE 17 22 9 12 1026.1 1023.8 0.0
18/09:00am 19.3 17.9 16.5 84 1.7 ENE 19 24 10 13 1026.1 1023.8 0.0
18/08:30am 17.7 16.5 16.0 90 1.0 ENE 17 24 9 13 1026.1 1023.8 0.0
18/08:00am 17.1 15.9 16.1 94 0.6 ENE 17 24 9 13 1025.8 1023.5 0.0
18/07:44am 16.8 15.8 16.5 98 0.2 E 17 24 9 13 1025.6 1023.3 0.0
18/07:30am 16.6 15.1 16.4 99 0.1 E 19 24 10 13 1025.4 1023.0 0.0
18/07:10am 16.3 14.5 16.1 99 0.1 E 20 26 11 14 1024.9 1022.6 0.0
18/07:09am 16.4 14.7 16.2 99 0.1 E 20 26 11 14 1024.9 1022.6 0.0
18/07:00am 16.3 14.7 16.1 99 0.1 ENE 19 24 10 13 1024.8 1022.5 0.0
18/06:30am 16.0 13.7 15.8 99 0.1 E 22 28 12 15 1024.5 1022.2 0.0
18/06:00am 16.0 13.0 15.8 99 0.1 E 26 33 14 18 1024.0 1021.6 0.0
18/05:30am 15.8 13.8 15.6 99 0.1 E 20 28 11 15 1023.7 1021.3 0.0
18/05:00am 15.8 14.0 15.6 99 0.1 ENE 19 26 10 14 1023.9 1021.5 0.0
18/04:30am 15.8 14.0 15.6 99 0.1 E 19 28 10 15 1023.8 1021.4 0.0
18/04:00am 15.8 13.8 15.6 99 0.1 E 20 30 11 16 1023.8 1021.4 0.0
18/03:30am 15.8 14.0 15.5 98 0.2 E 19 24 10 13 1023.9 1021.5 0.0
18/03:08am 16.0 14.2 15.5 97 0.3 E 19 24 10 13 1024.1 1021.8 0.0
18/03:00am 16.0 13.6 15.4 96 0.4 E 22 30 12 16 1024.1 1021.8 0.0
18/02:30am 16.1 14.0 15.3 95 0.5 E 20 28 11 15 1024.2 1021.9 0.0
18/02:00am 15.8 13.6 15.0 95 0.5 E 20 26 11 14 1024.5 1022.2 0.0
18/01:30am 15.9 13.5 15.3 96 0.4 E 22 26 12 14 1024.6 1022.3 0.0
18/01:13am 15.9 14.4 15.3 96 0.4 E 17 22 9 12 1025.0 1022.7 0.0
18/01:03am 15.9 14.0 15.3 96 0.4 E 19 24 10 13 1025.3 1022.9 0.0
18/01:00am 15.9 14.0 15.3 96 0.4 E 19 24 10 13 1025.3 1022.9 0.0
18/12:46am 16.0 13.9 15.2 95 0.5 E 20 24 11 13 1025.3 1022.9 0.0
18/12:30am 15.9 14.3 15.1 95 0.5 E 17 20 9 11 1025.5 1023.2 0.0
18/12:00am 16.0 14.0 15.0 94 0.6 E 19 22 10 12 1025.5 1023.2 0.0
 
Date/Time
EST
Temp
°C
App
Temp
°C
Dew
Point
Rel
Hum
%
Delta-T
°C
Wind Press
QNH
hPa
Press
MSL
hPa
Rain
since 9 am
mm
Dir
 
Spd
km/h
Gust
km/h
Spd
kts
Gust
kts
17/11:30pm 16.2 14.1 15.2 94 0.6 E 20 28 11 15 1025.6 1023.3 0.0
17/11:00pm 16.0 13.8 15.0 94 0.6 E 20 24 11 13 1025.6 1023.3 0.0
17/10:30pm 16.0 14.4 14.9 93 0.7 E 17 24 9 13 1025.9 1023.6 0.0
17/10:00pm 16.2 14.1 15.1 93 0.7 E 20 26 11 14 1025.8 1023.5 0.0
17/09:30pm 16.3 13.4 15.0 92 0.8 E 24 28 13 15 1025.8 1023.5 0.0
17/09:00pm 16.6 12.9 15.0 90 0.9 E 28 32 15 17 1025.8 1023.5 0.0
17/08:30pm 17.0 13.7 15.0 88 1.2 E 26 33 14 18 1025.6 1023.3 0.0
17/08:00pm 17.3 13.9 14.8 85 1.5 E 26 32 14 17 1025.4 1023.0 0.0
17/07:30pm 17.9 15.2 14.6 81 2.0 E 22 26 12 14 1025.0 1022.7 0.0
17/07:00pm 18.7 15.8 15.0 79 2.2 E 24 30 13 16 1024.7 1022.4 0.0
17/06:30pm 19.4 16.5 15.1 76 2.6 E 24 30 13 16 1024.3 1022.0 0.0
17/06:00pm 20.0 17.4 15.0 73 3.0 E 22 32 12 17 1024.1 1021.8 0.0
17/05:30pm 20.7 18.5 14.4 67 3.8 E 19 26 10 14 1023.7 1021.3 0.0
17/05:00pm 21.7 19.2 14.1 62 4.5 E 20 32 11 17 1023.6 1021.2 0.0
17/04:30pm 22.0 19.7 14.1 61 4.7 E 19 24 10 13 1023.3 1021.0 0.0
17/04:00pm 22.1 19.7 13.7 59 5.0 ENE 19 28 10 15 1023.2 1020.9 0.0
17/03:30pm 22.2 19.2 13.8 59 5.0 E 22 28 12 15 1023.2 1020.9 0.0
17/03:00pm 23.3 20.9 14.3 57 5.4 E 20 30 11 16 1023.3 1021.0 0.0
17/02:30pm 22.7 20.1 13.7 56 5.4 ENE 20 32 11 17 1023.4 1021.1 0.0
17/02:00pm 23.2 20.6 15.0 60 5.0 E 22 30 12 16 1023.4 1021.1 0.0
17/01:30pm 21.9 18.5 13.8 60 4.8 E 24 37 13 20 1023.8 1021.4 0.0
17/01:00pm 22.7 19.3 13.7 56 5.4 E 24 35 13 19 1024.2 1021.9 0.0
17/12:30pm 22.6 20.4 14.4 60 5.0 ENE 19 30 10 16 1024.8 1022.5 0.0
17/12:00pm 22.0 19.9 14.6 63 4.5 ENE 19 26 10 14 1025.6 1023.3 0.0
17/11:30am 21.6 20.3 14.7 65 4.2 E 15 22 8 12 1026.1 1023.8 0.0
17/11:00am 21.5 19.4 15.1 67 3.9 ENE 20 28 11 15 1026.7 1024.4 0.0
17/10:30am 20.8 19.1 14.7 68 3.7 ENE 17 26 9 14 1027.0 1024.7 0.0
17/10:00am 19.7 17.9 14.5 72 3.1 ENE 17 24 9 13 1027.4 1025.1 0.0
17/09:34am 20.1 17.9 14.9 72 3.1 ENE 20 28 11 15 1027.5 1025.2 0.0
17/09:30am 19.3 16.9 14.3 73 3.0 ENE 20 28 11 15 1027.6 1025.3 0.0
17/09:00am 20.0 18.3 14.6 71 3.2 E 17 22 9 12 1027.5 1025.2 0.0
17/08:33am 18.5 16.9 15.0 80 2.1 ENE 17 24 9 13 1027.4 1025.1 0.0
17/08:30am 18.6 16.8 15.5 82 1.9 ENE 19 24 10 13 1027.4 1025.1 0.0
17/08:23am 18.3 16.3 15.0 81 2.0 ENE 19 24 10 13 1027.4 1025.1 0.0
17/08:00am 17.6 16.3 15.9 90 1.0 ENE 17 20 9 11 1027.0 1024.7 0.0
17/07:30am 16.5 15.1 15.5 94 0.6 ENE 17 22 9 12 1027.2 1024.9 0.0
17/07:00am 16.3 15.6 15.5 95 0.5 E 13 19 7 10 1027.0 1024.7 0.0
17/06:30am 16.1 15.8 15.5 96 0.4 E 11 15 6 8 1027.2 1024.9 0.0
17/06:00am 16.0 15.7 15.5 97 0.3 E 11 15 6 8 1026.6 1024.3 0.0
17/05:30am 16.0 14.6 15.5 97 0.3 E 17 24 9 13 1026.0 1023.7 0.0
17/05:00am 16.0 14.0 15.4 96 0.4 E 20 28 11 15 1025.7 1023.4 0.0
17/04:30am 16.2 14.4 15.6 96 0.4 E 19 24 10 13 1025.5 1023.2 0.0
17/04:00am 16.1 14.3 15.6 97 0.3 E 19 22 10 12 1025.3 1022.9 0.0
17/03:30am 16.2 15.2 15.7 97 0.3 E 15 20 8 11 1025.3 1022.9 0.0
17/03:00am 16.1 15.1 15.5 96 0.4 E 15 22 8 12 1025.5 1023.2 0.0
17/02:30am 15.9 14.4 15.3 96 0.4 E 17 20 9 11 1025.5 1023.2 0.0
17/02:00am 15.7 14.1 15.1 96 0.4 E 17 20 9 11 1025.8 1023.5 0.0
17/01:30am 15.6 14.0 15.0 96 0.4 ESE 17 20 9 11 1026.1 1023.8 0.0
17/01:09am 15.6 14.0 15.0 96 0.4 E 17 20 9 11 1026.2 1023.9 0.0
17/01:00am 15.4 13.7 14.6 95 0.5 E 17 19 9 10 1026.2 1023.9 0.0
17/12:30am 15.4 13.6 14.4 94 0.6 E 17 22 9 12 1026.3 1024.0 0.0
17/12:00am 15.6 13.2 14.3 92 0.8 E 20 24 11 13 1026.6 1024.3 0.0
 
Date/Time
EST
Temp
°C
App
Temp
°C
Dew
Point
Rel
Hum
%
Delta-T
°C
Wind Press
QNH
hPa
Press
MSL
hPa
Rain
since 9 am
mm
Dir
 
Spd
km/h
Gust
km/h
Spd
kts
Gust
kts
16/11:30pm 15.9 13.5 14.4 91 0.9 E 20 24 11 13 1026.7 1024.4 0.0
16/11:00pm 16.0 14.3 14.7 92 0.8 E 17 22 9 12 1027.0 1024.7 0.0
16/10:30pm 15.6 14.3 13.8 89 1.0 E 13 15 7 8 1027.2 1024.9 0.0
16/10:00pm 15.7 14.7 13.5 87 1.3 E 11 13 6 7 1027.4 1025.1 0.0
16/09:30pm 16.6 14.7 14.2 86 1.4 E 17 22 9 12 1027.2 1024.9 0.0
16/09:00pm 17.0 14.9 13.5 80 2.0 E 17 20 9 11 1027.0 1024.7 0.0
16/08:30pm 17.9 15.7 13.2 74 2.7 E 17 20 9 11 1026.9 1024.6 0.0
16/08:00pm 18.2 16.3 13.1 72 2.9 E 15 17 8 9 1026.7 1024.4 0.0
16/07:30pm 18.4 16.5 13.0 71 3.1 E 15 19 8 10 1026.6 1024.3 0.0
16/07:00pm 19.0 16.4 13.2 69 3.4 E 19 22 10 12 1026.4 1024.1 0.0
16/06:30pm 19.6 16.8 13.3 67 3.7 E 20 24 11 13 1026.3 1024.0 0.0
16/06:00pm 19.8 17.6 13.3 66 3.8 E 17 22 9 12 1026.0 1023.7 0.0
16/05:30pm 20.5 17.6 13.0 62 4.4 ENE 20 26 11 14 1025.8 1023.5 0.0
16/05:00pm 21.5 18.7 12.6 57 5.2 ENE 19 26 10 14 1025.6 1023.3 0.0
16/04:30pm 22.3 19.3 12.5 53 5.7 E 20 28 11 15 1025.6 1023.3 0.0
16/04:00pm 22.8 19.4 11.2 48 6.6 E 20 30 11 16 1025.7 1023.4 0.0
16/03:30pm 23.1 19.5 10.5 45 7.2 E 20 28 11 15 1025.6 1023.3 0.0
16/03:00pm 23.7 20.1 10.7 44 7.4 E 20 26 11 14 1025.6 1023.3 0.0
16/02:30pm 23.4 20.5 11.1 46 7.1 ESE 17 24 9 13 1025.9 1023.6 0.0
16/02:00pm 23.3 20.2 11.7 48 6.7 E 19 28 10 15 1026.0 1023.7 0.0
16/01:30pm 23.3 20.4 12.9 52 6.2 ESE 20 32 11 17 1026.0 1023.7 0.0
16/01:00pm 22.7 19.5 11.4 49 6.5 ESE 19 28 10 15 1026.3 1024.0 0.0
16/12:30pm 22.9 20.1 13.1 54 5.8 E 20 30 11 16 1026.7 1024.4 0.0
16/12:00pm 22.6 19.0 12.0 51 6.1 E 22 37 12 20 1027.2 1024.9 0.0
16/11:30am 22.0 19.2 13.1 57 5.3 NE 20 26 11 14 1027.7 1025.4 0.0
16/11:00am 21.5 18.9 13.7 61 4.6 ENE 20 28 11 15 1028.3 1026.1 0.0
16/10:30am 21.4 18.8 13.8 62 4.5 ENE 20 24 11 13 1028.9 1026.6 0.0
16/10:00am 20.4 17.7 13.6 65 4.0 ENE 20 28 11 15 1029.2 1026.9 0.0

Other Formats:

Comma delimited format used in spreadsheet applications
http://www.bom.gov.au/fwo/IDQ60801/IDQ60801.95551.axf

JavaScript Object Notation format (JSON) in row-major order
http://www.bom.gov.au/fwo/IDQ60801/IDQ60801.95551.json